sensor_id;sensor_type;location;lat;lon;timestamp;pressure;altitude;pressure_sealevel;temperature;humidity
62980;BME280;49075;53.988;27.678;2023-05-11T00:01:34;996.2;;;4.9;45.5
62980;BME280;49075;53.988;27.678;2023-05-11T00:06:20;996.2;;;4.9;46
62980;BME280;49075;53.988;27.678;2023-05-11T00:11:20;996.2;;;4.8;45.8
62980;BME280;49075;53.988;27.678;2023-05-11T00:16:20;996.2;;;4.7;46.5
62980;BME280;49075;53.988;27.678;2023-05-11T00:22:04;996.3;;;4.7;46.1
62980;BME280;49075;53.988;27.678;2023-05-11T00:26:20;996.3;;;4.7;46.8
62980;BME280;49075;53.988;27.678;2023-05-11T00:31:20;996.2;;;4.7;46.2
62980;BME280;49075;53.988;27.678;2023-05-11T00:36:34;996.2;;;4.6;47.2
62980;BME280;49075;53.988;27.678;2023-05-11T00:41:24;996.2;;;4.6;46.4
62980;BME280;49075;53.988;27.678;2023-05-11T00:46:36;996.2;;;4.5;47.1
62980;BME280;49075;53.988;27.678;2023-05-11T00:51:36;996.3;;;4.5;46.7
62980;BME280;49075;53.988;27.678;2023-05-11T00:56:28;996.3;;;4.3;47.6
62980;BME280;49075;53.988;27.678;2023-05-11T01:01:20;996.3;;;4.2;47.2
62980;BME280;49075;53.988;27.678;2023-05-11T01:06:22;996.4;;;4.1;48.3
62980;BME280;49075;53.988;27.678;2023-05-11T01:11:41;996.4;;;4;47.8
62980;BME280;49075;53.988;27.678;2023-05-11T01:16:43;996.4;;;3.8;48.8
62980;BME280;49075;53.988;27.678;2023-05-11T01:21:26;996.4;;;3.9;48.1
62980;BME280;49075;53.988;27.678;2023-05-11T01:26:27;996.4;;;3.8;48.8
62980;BME280;49075;53.988;27.678;2023-05-11T01:31:53;996.4;;;3.8;48.7
62980;BME280;49075;53.988;27.678;2023-05-11T01:36:25;996.4;;;3.7;49
62980;BME280;49075;53.988;27.678;2023-05-11T01:41:42;996.4;;;3.7;49
62980;BME280;49075;53.988;27.678;2023-05-11T01:46:36;996.4;;;3.7;49.3
62980;BME280;49075;53.988;27.678;2023-05-11T01:51:24;996.4;;;3.6;49.3
62980;BME280;49075;53.988;27.678;2023-05-11T01:56:56;996.4;;;3.5;49.6
62980;BME280;49075;53.988;27.678;2023-05-11T02:01:20;996.4;;;3.5;49.7
62980;BME280;49075;53.988;27.678;2023-05-11T02:06:20;996.4;;;3.4;49.8
62980;BME280;49075;53.988;27.678;2023-05-11T02:11:34;996.4;;;3.4;50.2
62980;BME280;49075;53.988;27.678;2023-05-11T02:16:46;996.4;;;3.4;50
62980;BME280;49075;53.988;27.678;2023-05-11T02:21:20;996.4;;;3.4;50.5
62980;BME280;49075;53.988;27.678;2023-05-11T02:26:34;996.4;;;3.4;50
62980;BME280;49075;53.988;27.678;2023-05-11T02:31:34;996.4;;;3.3;50.6
62980;BME280;49075;53.988;27.678;2023-05-11T02:36:40;996.5;;;3.4;50.1
62980;BME280;49075;53.988;27.678;2023-05-11T02:41:35;996.5;;;3.4;50.4
62980;BME280;49075;53.988;27.678;2023-05-11T02:46:20;996.5;;;3.4;50.1
62980;BME280;49075;53.988;27.678;2023-05-11T02:51:29;996.5;;;3.3;50.9
62980;BME280;49075;53.988;27.678;2023-05-11T02:56:34;996.5;;;3.4;50.3
62980;BME280;49075;53.988;27.678;2023-05-11T03:01:20;996.5;;;3.4;50.8
62980;BME280;49075;53.988;27.678;2023-05-11T03:06:24;996.5;;;3.5;50.4
62980;BME280;49075;53.988;27.678;2023-05-11T03:11:20;996.5;;;3.5;51.1
62980;BME280;49075;53.988;27.678;2023-05-11T03:16:20;996.6;;;3.7;50.2
62980;BME280;49075;53.988;27.678;2023-05-11T03:21:32;996.6;;;3.7;50.7
62980;BME280;49075;53.988;27.678;2023-05-11T03:26:32;996.6;;;3.9;50.4
62980;BME280;49075;53.988;27.678;2023-05-11T03:31:26;996.6;;;4;50.4
62980;BME280;49075;53.988;27.678;2023-05-11T03:36:20;996.7;;;4.1;50.2
62980;BME280;49075;53.988;27.678;2023-05-11T03:41:38;996.7;;;4.3;50
62980;BME280;49075;53.988;27.678;2023-05-11T03:46:20;996.7;;;4.6;49.4
62980;BME280;49075;53.988;27.678;2023-05-11T03:51:34;996.8;;;4.9;49.4
62980;BME280;49075;53.988;27.678;2023-05-11T03:56:20;996.8;;;5.2;48.8
62980;BME280;49075;53.988;27.678;2023-05-11T04:01:20;996.8;;;5.5;48.5
62980;BME280;49075;53.988;27.678;2023-05-11T04:06:34;996.8;;;5.8;47.9
62980;BME280;49075;53.988;27.678;2023-05-11T04:11:34;996.8;;;6.1;47.4
62980;BME280;49075;53.988;27.678;2023-05-11T04:16:20;996.9;;;6.5;46.6
62980;BME280;49075;53.988;27.678;2023-05-11T04:21:20;996.9;;;6.9;45.8
62980;BME280;49075;53.988;27.678;2023-05-11T04:26:34;996.8;;;7.3;45.1
62980;BME280;49075;53.988;27.678;2023-05-11T04:31:28;996.8;;;7.7;44.4
62980;BME280;49075;53.988;27.678;2023-05-11T04:36:38;996.9;;;8;43.8
62980;BME280;49075;53.988;27.678;2023-05-11T04:41:20;996.9;;;8.4;43.4
62980;BME280;49075;53.988;27.678;2023-05-11T04:46:20;996.9;;;8.7;42.7
62980;BME280;49075;53.988;27.678;2023-05-11T04:51:36;996.9;;;9.3;41.6
62980;BME280;49075;53.988;27.678;2023-05-11T04:56:20;996.9;;;9.7;40.5
62980;BME280;49075;53.988;27.678;2023-05-11T05:01:42;996.9;;;10.2;39.8
62980;BME280;49075;53.988;27.678;2023-05-11T05:06:20;996.9;;;10.6;38.6
62980;BME280;49075;53.988;27.678;2023-05-11T05:11:20;996.9;;;11.1;37.1
62980;BME280;49075;53.988;27.678;2023-05-11T05:16:34;996.9;;;11.6;36.2
62980;BME280;49075;53.988;27.678;2023-05-11T05:21:34;996.9;;;12.1;35.1
62980;BME280;49075;53.988;27.678;2023-05-11T05:26:34;996.9;;;12.5;34.7
62980;BME280;49075;53.988;27.678;2023-05-11T05:31:34;996.9;;;12.9;33.6
62980;BME280;49075;53.988;27.678;2023-05-11T05:36:40;996.9;;;13.3;33.3
62980;BME280;49075;53.988;27.678;2023-05-11T05:41:20;996.9;;;13.7;31.9
62980;BME280;49075;53.988;27.678;2023-05-11T05:46:34;996.9;;;14.1;31.5
62980;BME280;49075;53.988;27.678;2023-05-11T05:51:36;996.9;;;14.5;30.6
62980;BME280;49075;53.988;27.678;2023-05-11T05:56:28;996.9;;;15;29.9
62980;BME280;49075;53.988;27.678;2023-05-11T06:01:22;996.8;;;15.4;28.8
62980;BME280;49075;53.988;27.678;2023-05-11T06:06:38;996.9;;;16;28.4
62980;BME280;49075;53.988;27.678;2023-05-11T06:11:40;996.8;;;16.8;26.4
62980;BME280;49075;53.988;27.678;2023-05-11T06:16:36;996.9;;;17.3;27.1
62980;BME280;49075;53.988;27.678;2023-05-11T06:21:22;996.8;;;18.1;26.1
62980;BME280;49075;53.988;27.678;2023-05-11T06:26:30;996.8;;;19.1;24.9
62980;BME280;49075;53.988;27.678;2023-05-11T06:31:34;996.8;;;20.2;23.1
62980;BME280;49075;53.988;27.678;2023-05-11T06:36:22;996.7;;;21.3;21.7
62980;BME280;49075;53.988;27.678;2023-05-11T06:41:30;996.8;;;21.9;20.9
62980;BME280;49075;53.988;27.678;2023-05-11T06:46:38;996.8;;;23;20.5
62980;BME280;49075;53.988;27.678;2023-05-11T06:51:26;996.8;;;23.8;18.6
62980;BME280;49075;53.988;27.678;2023-05-11T06:56:22;996.8;;;24.4;18.7
62980;BME280;49075;53.988;27.678;2023-05-11T07:01:22;996.9;;;25.4;17.4
62980;BME280;49075;53.988;27.678;2023-05-11T07:06:22;996.9;;;25.6;17.7
62980;BME280;49075;53.988;27.678;2023-05-11T07:11:36;996.9;;;25.6;17
62980;BME280;49075;53.988;27.678;2023-05-11T07:16:22;996.9;;;26.2;16.5
62980;BME280;49075;53.988;27.678;2023-05-11T07:21:22;996.9;;;27;15.9
62980;BME280;49075;53.988;27.678;2023-05-11T07:26:36;996.9;;;28.1;14.4
62980;BME280;49075;53.988;27.678;2023-05-11T07:31:22;996.8;;;28.1;14.1
62980;BME280;49075;53.988;27.678;2023-05-11T07:36:42;996.8;;;27.8;13.5
62980;BME280;49075;53.988;27.678;2023-05-11T07:41:40;996.8;;;27.8;14.1
62980;BME280;49075;53.988;27.678;2023-05-11T07:46:48;996.8;;;28.2;13.5
62980;BME280;49075;53.988;27.678;2023-05-11T07:51:44;996.8;;;27.8;13.3
62980;BME280;49075;53.988;27.678;2023-05-11T07:56:48;996.8;;;28.1;13.1
62980;BME280;49075;53.988;27.678;2023-05-11T08:01:34;996.7;;;28.4;13
62980;BME280;49075;53.988;27.678;2023-05-11T08:06:34;996.7;;;28.7;12.7
62980;BME280;49075;53.988;27.678;2023-05-11T08:11:22;996.7;;;28.3;12.9
62980;BME280;49075;53.988;27.678;2023-05-11T08:16:38;996.7;;;27.9;12.6
62980;BME280;49075;53.988;27.678;2023-05-11T08:21:30;996.7;;;28.2;12.5
62980;BME280;49075;53.988;27.678;2023-05-11T08:26:42;996.7;;;28.9;11.8
62980;BME280;49075;53.988;27.678;2023-05-11T08:31:36;996.7;;;29.1;12.4
62980;BME280;49075;53.988;27.678;2023-05-11T08:36:40;996.7;;;28.3;12.2
62980;BME280;49075;53.988;27.678;2023-05-11T08:41:22;996.6;;;27.6;13
62980;BME280;49075;53.988;27.678;2023-05-11T08:46:22;996.6;;;27.3;13
62980;BME280;49075;53.988;27.678;2023-05-11T08:51:48;996.6;;;26.2;13.8
62980;BME280;49075;53.988;27.678;2023-05-11T08:56:22;996.5;;;26.6;13.6
62980;BME280;49075;53.988;27.678;2023-05-11T09:01:46;996.5;;;26;14.1
62980;BME280;49075;53.988;27.678;2023-05-11T09:06:46;996.4;;;24.1;14.6
62980;BME280;49075;53.988;27.678;2023-05-11T09:11:36;996.4;;;22.4;15.9
62980;BME280;49075;53.988;27.678;2023-05-11T09:16:46;996.4;;;21.5;17.1
62980;BME280;49075;53.988;27.678;2023-05-11T09:21:22;996.4;;;20.8;17.5
62980;BME280;49075;53.988;27.678;2023-05-11T09:26:28;996.4;;;20.5;17.8
62980;BME280;49075;53.988;27.678;2023-05-11T09:31:36;996.3;;;21.2;17.1
62980;BME280;49075;53.988;27.678;2023-05-11T09:36:36;996.3;;;24;15.6
62980;BME280;49075;53.988;27.678;2023-05-11T09:41:26;996.2;;;26.4;13.8
62980;BME280;49075;53.988;27.678;2023-05-11T09:46:44;996.2;;;27.1;13.2
62980;BME280;49075;53.988;27.678;2023-05-11T09:51:33;996.2;;;27.3;12.7
62980;BME280;49075;53.988;27.678;2023-05-11T09:56:22;996.2;;;27.5;12.7
62980;BME280;49075;53.988;27.678;2023-05-11T10:01:30;996.1;;;26.8;12.7
62980;BME280;49075;53.988;27.678;2023-05-11T10:06:22;996.1;;;27.8;12.4
62980;BME280;49075;53.988;27.678;2023-05-11T10:11:22;996;;;29.2;11.7
62980;BME280;49075;53.988;27.678;2023-05-11T10:16:44;995.9;;;30.7;11.2
62980;BME280;49075;53.988;27.678;2023-05-11T10:21:54;995.9;;;31;10.8
62980;BME280;49075;53.988;27.678;2023-05-11T10:26:26;995.9;;;29.8;11.7
62980;BME280;49075;53.988;27.678;2023-05-11T10:31:22;995.8;;;29.5;11.4
62980;BME280;49075;53.988;27.678;2023-05-11T10:36:22;995.8;;;29.8;11.4
62980;BME280;49075;53.988;27.678;2023-05-11T10:41:34;995.8;;;30.3;10.9
62980;BME280;49075;53.988;27.678;2023-05-11T10:46:53;995.8;;;29.4;11.6
62980;BME280;49075;53.988;27.678;2023-05-11T10:51:40;995.8;;;28.1;12
62980;BME280;49075;53.988;27.678;2023-05-11T10:56:35;995.7;;;25;14.3
62980;BME280;49075;53.988;27.678;2023-05-11T11:01:36;995.8;;;23.8;14.9
62980;BME280;49075;53.988;27.678;2023-05-11T11:06:22;995.9;;;22;15.9
62980;BME280;49075;53.988;27.678;2023-05-11T11:11:35;995.8;;;20.5;17.1
62980;BME280;49075;53.988;27.678;2023-05-11T11:16:22;995.7;;;18.6;19.1
62980;BME280;49075;53.988;27.678;2023-05-11T11:21:38;995.9;;;18.5;19.2
62980;BME280;49075;53.988;27.678;2023-05-11T11:26:46;995.8;;;18.8;18.8
62980;BME280;49075;53.988;27.678;2023-05-11T11:31:34;995.8;;;19.1;18.8
62980;BME280;49075;53.988;27.678;2023-05-11T11:37:31;995.7;;;19.4;18.6
62980;BME280;49075;53.988;27.678;2023-05-11T11:41:27;995.7;;;19.4;18.5
62980;BME280;49075;53.988;27.678;2023-05-11T11:47:08;995.7;;;19.5;18.5
62980;BME280;49075;53.988;27.678;2023-05-11T11:51:22;995.7;;;19.7;18.3
62980;BME280;49075;53.988;27.678;2023-05-11T11:56:39;995.7;;;20.1;18.2
62980;BME280;49075;53.988;27.678;2023-05-11T12:01:23;995.6;;;20.5;18
62980;BME280;49075;53.988;27.678;2023-05-11T12:06:22;995.6;;;20.7;17.9
62980;BME280;49075;53.988;27.678;2023-05-11T12:11:36;995.6;;;20.6;17.9
62980;BME280;49075;53.988;27.678;2023-05-11T12:16:22;995.6;;;20.5;18.1
62980;BME280;49075;53.988;27.678;2023-05-11T12:21:50;995.6;;;19.7;18.6
62980;BME280;49075;53.988;27.678;2023-05-11T12:26:23;995.6;;;18.7;19.3
62980;BME280;49075;53.988;27.678;2023-05-11T12:31:26;995.6;;;18.2;19.9
62980;BME280;49075;53.988;27.678;2023-05-11T12:36:32;995.6;;;18.1;19.8
62980;BME280;49075;53.988;27.678;2023-05-11T12:41:42;995.6;;;17.8;20.4
62980;BME280;49075;53.988;27.678;2023-05-11T12:46:22;995.6;;;17.4;20.9
62980;BME280;49075;53.988;27.678;2023-05-11T12:52:26;995.6;;;17.3;20.8
62980;BME280;49075;53.988;27.678;2023-05-11T12:56:43;995.5;;;17.1;21.1
62980;BME280;49075;53.988;27.678;2023-05-11T13:01:50;995.5;;;16.8;21.2
62980;BME280;49075;53.988;27.678;2023-05-11T13:06:44;995.4;;;17.2;20.9
62980;BME280;49075;53.988;27.678;2023-05-11T13:11:48;995.4;;;17.6;20.8
62980;BME280;49075;53.988;27.678;2023-05-11T13:16:23;995.3;;;17.7;20.8
62980;BME280;49075;53.988;27.678;2023-05-11T13:21:22;995.2;;;18.2;20.4
62980;BME280;49075;53.988;27.678;2023-05-11T13:26:54;995.2;;;18.5;20.3
62980;BME280;49075;53.988;27.678;2023-05-11T13:31:28;995.1;;;18.6;20.3
62980;BME280;49075;53.988;27.678;2023-05-11T13:36:36;995.1;;;18.9;19.9
62980;BME280;49075;53.988;27.678;2023-05-11T13:41:42;995.1;;;18.9;20
62980;BME280;49075;53.988;27.678;2023-05-11T13:46:22;995.1;;;18.3;20.4
62980;BME280;49075;53.988;27.678;2023-05-11T13:51:46;995.1;;;18.1;20.5
62980;BME280;49075;53.988;27.678;2023-05-11T13:56:22;995.1;;;17.9;20.6
62980;BME280;49075;53.988;27.678;2023-05-11T14:01:23;995.1;;;17.6;20.9
62980;BME280;49075;53.988;27.678;2023-05-11T14:06:36;995.1;;;17.3;21.1
62980;BME280;49075;53.988;27.678;2023-05-11T14:11:34;995;;;17.1;21.1
62980;BME280;49075;53.988;27.678;2023-05-11T14:16:22;995;;;17.3;21.1
62980;BME280;49075;53.988;27.678;2023-05-11T14:21:22;994.9;;;17.7;20.9
62980;BME280;49075;53.988;27.678;2023-05-11T14:26:38;994.8;;;18.4;20.3
62980;BME280;49075;53.988;27.678;2023-05-11T14:31:22;994.8;;;18.8;20.1
62980;BME280;49075;53.988;27.678;2023-05-11T14:36:22;994.8;;;18.9;19.8
62980;BME280;49075;53.988;27.678;2023-05-11T14:41:28;994.8;;;19;19.7
62980;BME280;49075;53.988;27.678;2023-05-11T14:46:42;994.8;;;18.9;19.8
62980;BME280;49075;53.988;27.678;2023-05-11T14:51:28;994.8;;;18.9;19.9
62980;BME280;49075;53.988;27.678;2023-05-11T14:56:22;994.8;;;18.7;20.3
62980;BME280;49075;53.988;27.678;2023-05-11T15:01:22;994.8;;;18.6;20.2
62980;BME280;49075;53.988;27.678;2023-05-11T15:06:22;994.8;;;18.6;20.2
62980;BME280;49075;53.988;27.678;2023-05-11T15:11:26;994.8;;;18.4;20.4
62980;BME280;49075;53.988;27.678;2023-05-11T15:16:46;994.8;;;18.1;20.7
62980;BME280;49075;53.988;27.678;2023-05-11T15:21:34;994.8;;;18.2;20.7
62980;BME280;49075;53.988;27.678;2023-05-11T15:26:54;994.8;;;18.3;20.7
62980;BME280;49075;53.988;27.678;2023-05-11T15:31:38;994.8;;;18.2;20.8
62980;BME280;49075;53.988;27.678;2023-05-11T15:36:22;994.9;;;18;21.1
62980;BME280;49075;53.988;27.678;2023-05-11T15:41:22;994.8;;;17.9;21.1
62980;BME280;49075;53.988;27.678;2023-05-11T15:46:22;994.8;;;17.6;21.5
62980;BME280;49075;53.988;27.678;2023-05-11T15:51:50;994.8;;;17.5;21.5
62980;BME280;49075;53.988;27.678;2023-05-11T15:56:22;994.8;;;17.4;21.7
62980;BME280;49075;53.988;27.678;2023-05-11T16:01:38;994.8;;;17.4;21.8
62980;BME280;49075;53.988;27.678;2023-05-11T16:06:36;994.8;;;17.5;21.9
62980;BME280;49075;53.988;27.678;2023-05-11T16:11:22;994.8;;;17.4;21.8
62980;BME280;49075;53.988;27.678;2023-05-11T16:16:34;994.8;;;17.4;21.8
62980;BME280;49075;53.988;27.678;2023-05-11T16:21:28;994.8;;;17.4;21.8
62980;BME280;49075;53.988;27.678;2023-05-11T16:26:22;994.8;;;17.4;21.7
62980;BME280;49075;53.988;27.678;2023-05-11T16:31:48;994.8;;;17.3;21.3
62980;BME280;49075;53.988;27.678;2023-05-11T16:36:22;994.8;;;17.1;21.8
62980;BME280;49075;53.988;27.678;2023-05-11T16:41:22;994.9;;;17;22.1
62980;BME280;49075;53.988;27.678;2023-05-11T16:46:22;994.8;;;16.9;22.5
62980;BME280;49075;53.988;27.678;2023-05-11T16:51:44;994.8;;;16.7;22.8
62980;BME280;49075;53.988;27.678;2023-05-11T16:56:48;994.8;;;16.5;23.1
62980;BME280;49075;53.988;27.678;2023-05-11T17:01:22;994.8;;;16.5;23.1
62980;BME280;49075;53.988;27.678;2023-05-11T17:06:22;994.8;;;16.4;23.1
62980;BME280;49075;53.988;27.678;2023-05-11T17:11:22;994.8;;;16.3;23.3
62980;BME280;49075;53.988;27.678;2023-05-11T17:16:22;994.9;;;16.1;23.4
62980;BME280;49075;53.988;27.678;2023-05-11T17:21:22;994.9;;;15.9;23.8
62980;BME280;49075;53.988;27.678;2023-05-11T17:26:22;994.9;;;15.8;23.9
62980;BME280;49075;53.988;27.678;2023-05-11T17:31:22;994.9;;;15.6;24.2
62980;BME280;49075;53.988;27.678;2023-05-11T17:36:44;994.9;;;15.5;24.4
62980;BME280;49075;53.988;27.678;2023-05-11T17:41:22;995;;;15.3;25.2
62980;BME280;49075;53.988;27.678;2023-05-11T17:46:34;995;;;15.2;26.2
62980;BME280;49075;53.988;27.678;2023-05-11T17:51:45;995;;;15;26.8
62980;BME280;49075;53.988;27.678;2023-05-11T17:56:42;995.1;;;14.8;27.3
62980;BME280;49075;53.988;27.678;2023-05-11T18:01:32;995.2;;;14.6;27.8
62980;BME280;49075;53.988;27.678;2023-05-11T18:06:36;995.2;;;14.3;28.4
62980;BME280;49075;53.988;27.678;2023-05-11T18:11:22;995.3;;;14.2;29
62980;BME280;49075;53.988;27.678;2023-05-11T18:16:34;995.3;;;14;30.1
62980;BME280;49075;53.988;27.678;2023-05-11T18:21:22;995.3;;;13.8;30.5
62980;BME280;49075;53.988;27.678;2023-05-11T18:26:48;995.4;;;13.6;31.2
62980;BME280;49075;53.988;27.678;2023-05-11T18:31:56;995.4;;;13.4;31.4
62980;BME280;49075;53.988;27.678;2023-05-11T18:36:48;995.4;;;13.1;32
62980;BME280;49075;53.988;27.678;2023-05-11T18:41:44;995.4;;;12.9;32
62980;BME280;49075;53.988;27.678;2023-05-11T18:46:32;995.5;;;12.7;32.8
62980;BME280;49075;53.988;27.678;2023-05-11T18:51:40;995.5;;;12.5;33
62980;BME280;49075;53.988;27.678;2023-05-11T18:56:22;995.5;;;12.4;33.2
62980;BME280;49075;53.988;27.678;2023-05-11T19:01:32;995.6;;;12.3;33.7
62980;BME280;49075;53.988;27.678;2023-05-11T19:06:22;995.6;;;12.1;33.9
62980;BME280;49075;53.988;27.678;2023-05-11T19:11:22;995.6;;;12;34.5
62980;BME280;49075;53.988;27.678;2023-05-11T19:16:36;995.6;;;11.8;34.5
62980;BME280;49075;53.988;27.678;2023-05-11T19:22:00;995.6;;;11.7;35.2
62980;BME280;49075;53.988;27.678;2023-05-11T19:26:42;995.6;;;11.5;35.1
62980;BME280;49075;53.988;27.678;2023-05-11T19:31:38;995.6;;;11.3;35.7
62980;BME280;49075;53.988;27.678;2023-05-11T19:36:22;995.6;;;11.2;35.7
62980;BME280;49075;53.988;27.678;2023-05-11T19:41:22;995.6;;;11;36.5
62980;BME280;49075;53.988;27.678;2023-05-11T19:46:28;995.7;;;10.9;36.5
62980;BME280;49075;53.988;27.678;2023-05-11T19:51:22;995.7;;;10.8;37.2
62980;BME280;49075;53.988;27.678;2023-05-11T19:56:22;995.7;;;10.8;37.2
62980;BME280;49075;53.988;27.678;2023-05-11T20:01:22;995.7;;;10.6;37.9
62980;BME280;49075;53.988;27.678;2023-05-11T20:06:34;995.7;;;10.5;37.8
62980;BME280;49075;53.988;27.678;2023-05-11T20:11:36;995.8;;;10.3;38.5
62980;BME280;49075;53.988;27.678;2023-05-11T20:16:22;995.8;;;10.3;38.4
62980;BME280;49075;53.988;27.678;2023-05-11T20:21:38;995.8;;;10.2;39.1
62980;BME280;49075;53.988;27.678;2023-05-11T20:26:32;995.8;;;10.1;38.9
62980;BME280;49075;53.988;27.678;2023-05-11T20:31:46;995.8;;;10.1;39.4
62980;BME280;49075;53.988;27.678;2023-05-11T20:36:22;995.8;;;10;39.3
62980;BME280;49075;53.988;27.678;2023-05-11T20:41:22;995.8;;;9.9;40.1
62980;BME280;49075;53.988;27.678;2023-05-11T20:46:44;995.8;;;9.8;40.1
62980;BME280;49075;53.988;27.678;2023-05-11T20:51:40;995.8;;;9.7;40.3
62980;BME280;49075;53.988;27.678;2023-05-11T20:56:32;995.9;;;9.7;40.5
62980;BME280;49075;53.988;27.678;2023-05-11T21:01:22;995.9;;;9.6;40.5
62980;BME280;49075;53.988;27.678;2023-05-11T21:06:32;995.9;;;9.6;40.7
62980;BME280;49075;53.988;27.678;2023-05-11T21:11:34;995.9;;;9.5;40.7
62980;BME280;49075;53.988;27.678;2023-05-11T21:16:38;995.9;;;9.4;41.2
62980;BME280;49075;53.988;27.678;2023-05-11T21:21:22;995.9;;;9.3;41.4
62980;BME280;49075;53.988;27.678;2023-05-11T21:26:47;995.9;;;9.2;42.1
62980;BME280;49075;53.988;27.678;2023-05-11T21:31:34;995.9;;;9;42
62980;BME280;49075;53.988;27.678;2023-05-11T21:36:32;996;;;9;42.7
62980;BME280;49075;53.988;27.678;2023-05-11T21:41:22;996;;;9;42.4
62980;BME280;49075;53.988;27.678;2023-05-11T21:46:46;996;;;8.9;43
62980;BME280;49075;53.988;27.678;2023-05-11T21:51:24;996;;;8.8;42.8
62980;BME280;49075;53.988;27.678;2023-05-11T21:56:38;996.1;;;8.6;43.5
62980;BME280;49075;53.988;27.678;2023-05-11T22:01:24;996.1;;;8.6;43.2
62980;BME280;49075;53.988;27.678;2023-05-11T22:06:38;996.1;;;8.4;44.1
62980;BME280;49075;53.988;27.678;2023-05-11T22:11:50;996.2;;;8.3;43.9
62980;BME280;49075;53.988;27.678;2023-05-11T22:16:24;996.2;;;8.2;44.8
62980;BME280;49075;53.988;27.678;2023-05-11T22:21:24;996.3;;;8;44.5
62980;BME280;49075;53.988;27.678;2023-05-11T22:26:50;996.3;;;7.9;45.4
62980;BME280;49075;53.988;27.678;2023-05-11T22:31:28;996.4;;;7.8;45.3
62980;BME280;49075;53.988;27.678;2023-05-11T22:36:24;996.4;;;7.8;45.6
62980;BME280;49075;53.988;27.678;2023-05-11T22:41:24;996.4;;;7.7;46
62980;BME280;49075;53.988;27.678;2023-05-11T22:46:42;996.4;;;7.6;45.5
62980;BME280;49075;53.988;27.678;2023-05-11T22:51:38;996.5;;;7.6;46.3
62980;BME280;49075;53.988;27.678;2023-05-11T22:56:46;996.5;;;7.5;45.8
62980;BME280;49075;53.988;27.678;2023-05-11T23:01:34;996.5;;;7.5;46.4
62980;BME280;49075;53.988;27.678;2023-05-11T23:06:24;996.5;;;7.4;46.3
62980;BME280;49075;53.988;27.678;2023-05-11T23:11:24;996.5;;;7.3;47
62980;BME280;49075;53.988;27.678;2023-05-11T23:16:24;996.5;;;7.3;46.7
62980;BME280;49075;53.988;27.678;2023-05-11T23:21:24;996.5;;;7.2;47.9
62980;BME280;49075;53.988;27.678;2023-05-11T23:26:36;996.5;;;7.1;47.5
62980;BME280;49075;53.988;27.678;2023-05-11T23:31:34;996.5;;;7;48.5
62980;BME280;49075;53.988;27.678;2023-05-11T23:36:24;996.5;;;7;47.9
62980;BME280;49075;53.988;27.678;2023-05-11T23:41:38;996.5;;;6.9;48.8
62980;BME280;49075;53.988;27.678;2023-05-11T23:46:24;996.6;;;6.9;48.1
62980;BME280;49075;53.988;27.678;2023-05-11T23:51:38;996.6;;;6.8;49
62980;BME280;49075;53.988;27.678;2023-05-11T23:56:38;996.6;;;6.7;49
